createdAt,value
2019-01-24T00:02:01.298Z,102.30
2019-01-24T00:04:31.178Z,107.55
2019-01-24T00:07:00.970Z,112.15
2019-01-24T00:09:30.815Z,111.10
2019-01-24T00:12:00.690Z,96.15
2019-01-24T00:14:30.511Z,109.92
2019-01-24T00:17:03.519Z,90.75
2019-01-24T00:19:33.353Z,94.50
2019-01-24T00:22:03.462Z,94.58
2019-01-24T00:24:34.939Z,87.47
2019-01-24T00:27:04.911Z,93.27
2019-01-24T00:29:34.753Z,103.17
2019-01-24T00:32:04.814Z,107.47
2019-01-24T00:34:34.670Z,97.67
2019-01-24T00:37:04.727Z,99.25
2019-01-24T00:39:34.573Z,96.20
2019-01-24T00:42:04.414Z,91.63
2019-01-24T00:44:34.253Z,95.67
2019-01-24T00:47:04.423Z,87.47
2019-01-24T00:49:34.219Z,88.50
2019-01-24T00:52:04.395Z,80.35
2019-01-24T00:54:34.154Z,93.25
2019-01-24T00:57:03.900Z,78.92
2019-01-24T00:59:33.871Z,86.50
2019-01-24T01:02:03.738Z,97.90
2019-01-24T01:04:34.811Z,92.72
2019-01-24T01:07:05.232Z,100.18
2019-01-24T01:09:35.019Z,96.60
2019-01-24T01:12:06.381Z,102.60
2019-01-24T01:14:36.183Z,108.60
2019-01-24T01:17:06.085Z,99.28
2019-01-24T01:19:35.896Z,97.40
2019-01-24T01:22:05.697Z,105.25
2019-01-24T01:24:35.445Z,94.95
2019-01-24T01:27:05.451Z,92.40
2019-01-24T01:29:35.322Z,108.30
2019-01-24T01:32:05.359Z,110.83
2019-01-24T01:34:36.379Z,103.38
2019-01-24T01:37:06.522Z,92.62
2019-01-24T01:39:36.433Z,92.88
2019-01-24T01:42:06.298Z,96.47
2019-01-24T01:44:36.115Z,95.87
2019-01-24T01:47:05.969Z,82.12
2019-01-24T01:49:35.799Z,88.37
2019-01-24T01:52:05.586Z,91.70
2019-01-24T01:54:35.409Z,91.97
2019-01-24T01:57:05.391Z,85.07
2019-01-24T01:59:35.161Z,94.95
2019-01-24T02:02:05.038Z,79.75
2019-01-24T02:04:34.931Z,100.95
2019-01-24T02:07:04.902Z,97.50
2019-01-24T02:09:34.738Z,80.70
2019-01-24T02:12:04.595Z,86.50
2019-01-24T02:14:34.511Z,91.60
2019-01-24T02:17:04.503Z,90.45
2019-01-24T02:19:34.245Z,99.00
2019-01-24T02:22:04.488Z,102.87
2019-01-24T02:24:34.378Z,96.40
2019-01-24T02:27:04.714Z,105.12
2019-01-24T02:29:34.555Z,86.78
2019-01-24T02:32:04.555Z,97.92
2019-01-24T02:34:34.385Z,92.25
2019-01-24T02:37:04.353Z,99.42
2019-01-24T02:39:34.241Z,85.75
2019-01-24T02:42:04.157Z,79.20
2019-01-24T02:44:33.932Z,78.87
2019-01-24T02:47:03.690Z,83.87
2019-01-24T02:49:33.493Z,90.42
2019-01-24T02:52:03.256Z,81.28
2019-01-24T02:54:33.077Z,89.35
2019-01-24T02:57:02.923Z,83.97
2019-01-24T02:59:32.756Z,93.40
2019-01-24T03:02:02.587Z,97.57
2019-01-24T03:04:32.356Z,88.47
2019-01-24T03:07:02.156Z,96.60
2019-01-24T03:09:31.910Z,88.70
2019-01-24T03:12:01.777Z,85.35
2019-01-24T03:14:31.638Z,86.82
2019-01-24T03:17:01.471Z,90.28
2019-01-24T03:19:31.447Z,90.60
2019-01-24T03:22:01.292Z,99.07
2019-01-24T03:24:31.195Z,90.17
2019-01-24T03:27:01.117Z,87.33
2019-01-24T03:29:30.960Z,92.53
2019-01-24T03:32:00.880Z,88.52
2019-01-24T03:34:30.790Z,91.08
2019-01-24T03:37:01.430Z,91.67
2019-01-24T03:39:31.459Z,93.07
2019-01-24T03:42:01.328Z,78.20
2019-01-24T03:44:31.067Z,75.22
2019-01-24T03:47:00.842Z,84.10
2019-01-24T03:49:33.123Z,81.95
2019-01-24T03:52:02.904Z,80.38
2019-01-24T03:54:32.760Z,79.22
2019-01-24T03:57:02.667Z,76.80
2019-01-24T03:59:32.581Z,72.35
2019-01-24T04:02:02.491Z,74.95
2019-01-24T04:04:32.376Z,84.42
2019-01-24T04:07:02.147Z,77.53
2019-01-24T04:09:31.980Z,69.82
2019-01-24T04:12:01.814Z,72.05
2019-01-24T04:14:31.570Z,73.97
2019-01-24T04:17:02.956Z,70.65
2019-01-24T04:19:32.913Z,69.87
2019-01-24T04:22:02.771Z,72.12
2019-01-24T04:24:32.628Z,66.85
2019-01-24T04:27:02.391Z,71.77
2019-01-24T04:29:32.341Z,69.17
2019-01-24T04:32:02.198Z,64.40
2019-01-24T04:34:32.039Z,80.53
2019-01-24T04:37:01.803Z,59.27
2019-01-24T04:39:31.698Z,71.70
2019-01-24T04:42:01.537Z,65.60
2019-01-24T04:44:31.431Z,64.72
2019-01-24T04:47:01.305Z,82.45
2019-01-24T04:49:31.118Z,69.90
2019-01-24T04:52:01.045Z,64.35
2019-01-24T04:54:30.901Z,68.57
2019-01-24T04:57:00.776Z,67.03
2019-01-24T04:59:30.630Z,64.27
2019-01-24T05:02:01.715Z,69.00
2019-01-24T05:04:31.613Z,66.62
2019-01-24T05:07:01.421Z,67.50
2019-01-24T05:09:31.198Z,65.52
2019-01-24T05:12:01.039Z,69.92
2019-01-24T05:14:32.131Z,60.23
2019-01-24T05:17:02.044Z,62.90
2019-01-24T05:19:31.933Z,72.05
2019-01-24T05:22:03.462Z,67.82
2019-01-24T05:24:33.308Z,58.95
2019-01-24T05:27:04.261Z,59.60
2019-01-24T05:29:34.424Z,62.65
2019-01-24T05:32:04.343Z,57.73
2019-01-24T05:34:34.171Z,65.37
2019-01-24T05:37:04.028Z,66.42
2019-01-24T05:39:33.843Z,63.95
2019-01-24T05:42:03.766Z,61.58
2019-01-24T05:44:33.605Z,67.47
2019-01-24T05:47:03.518Z,56.55
2019-01-24T05:49:33.805Z,63.70
2019-01-24T05:52:03.609Z,57.35
2019-01-24T05:54:35.297Z,59.05
2019-01-24T05:57:06.444Z,56.33
2019-01-24T05:59:36.290Z,51.85
2019-01-24T06:02:06.065Z,55.60
2019-01-24T06:04:35.896Z,62.75
2019-01-24T06:07:05.806Z,60.52
2019-01-24T06:09:39.522Z,57.03
2019-01-24T06:12:09.483Z,57.55
2019-01-24T06:14:39.327Z,57.98
2019-01-24T06:17:09.227Z,53.87
2019-01-24T06:19:39.067Z,52.15
2019-01-24T06:22:08.816Z,55.30
2019-01-24T06:24:38.653Z,55.92
2019-01-24T06:27:08.519Z,63.38
2019-01-24T06:29:38.431Z,61.58
2019-01-24T06:32:08.280Z,63.38
2019-01-24T06:34:38.126Z,61.75
2019-01-24T06:37:08.019Z,62.88
2019-01-24T06:39:37.898Z,63.52
2019-01-24T06:42:09.386Z,62.93
2019-01-24T06:44:39.151Z,61.80
2019-01-24T06:47:08.980Z,54.55
2019-01-24T06:49:38.850Z,61.08
2019-01-24T06:52:09.407Z,64.37
2019-01-24T06:54:41.010Z,64.70
2019-01-24T06:57:10.791Z,59.40
2019-01-24T06:59:40.655Z,52.55
2019-01-24T07:02:10.504Z,52.65
2019-01-24T07:04:40.272Z,51.08
2019-01-24T07:07:17.290Z,54.75
2019-01-24T07:09:43.248Z,53.38
2019-01-24T07:12:13.143Z,48.28
2019-01-24T07:14:42.961Z,51.58
2019-01-24T07:17:14.036Z,47.55
2019-01-24T07:19:44.943Z,50.23
2019-01-24T07:22:14.807Z,59.53
2019-01-24T07:24:44.730Z,44.83
2019-01-24T07:27:30.343Z,53.40
2019-01-24T07:30:00.727Z,52.20
2019-01-24T07:32:31.121Z,66.97
2019-01-24T07:35:01.562Z,46.48
2019-01-24T07:37:31.506Z,54.18
2019-01-24T07:40:02.033Z,64.45
2019-01-24T07:42:32.752Z,48.60
2019-01-24T07:45:03.379Z,51.42
2019-01-24T07:47:33.524Z,51.45
2019-01-24T07:50:04.822Z,57.23
2019-01-24T07:52:35.254Z,54.63
2019-01-24T07:55:08.101Z,45.67
2019-01-24T07:57:38.471Z,52.20
2019-01-24T08:00:20.479Z,49.67
2019-01-24T08:02:50.987Z,59.33
2019-01-24T08:05:21.417Z,45.38
2019-01-24T08:07:51.954Z,48.63
2019-01-24T08:10:23.681Z,48.02
2019-01-24T08:12:54.397Z,50.78
2019-01-24T08:15:25.480Z,46.35
2019-01-24T08:17:56.035Z,46.23
2019-01-24T08:20:28.030Z,50.17
2019-01-24T08:22:58.443Z,46.80
2019-01-24T08:25:29.208Z,44.93
2019-01-24T08:27:59.853Z,45.58
2019-01-24T08:30:32.411Z,48.08
2019-01-24T08:33:03.226Z,45.08
2019-01-24T08:35:33.953Z,45.28
2019-01-24T08:38:04.741Z,45.50
2019-01-24T08:40:35.363Z,50.48
2019-01-24T08:43:07.086Z,48.48
2019-01-24T08:45:37.803Z,53.63
2019-01-24T08:48:08.236Z,47.83
2019-01-24T08:50:38.805Z,42.73
2019-01-24T08:53:09.393Z,49.77
2019-01-24T08:55:40.160Z,46.92
2019-01-24T08:58:10.939Z,48.28
2019-01-24T09:00:41.366Z,48.80
2019-01-24T09:03:11.958Z,43.78
2019-01-24T09:05:42.398Z,43.75
2019-01-24T09:08:12.644Z,46.20
2019-01-24T09:10:43.071Z,47.62
2019-01-24T09:13:13.242Z,43.92
2019-01-24T09:15:43.372Z,43.00
2019-01-24T09:18:13.838Z,49.27
2019-01-24T09:20:44.159Z,45.08
2019-01-24T09:23:14.575Z,48.38
2019-01-24T09:25:44.915Z,48.35
2019-01-24T09:28:15.230Z,45.20
2019-01-24T09:30:45.453Z,44.10
2019-01-24T09:33:15.768Z,46.15
2019-01-24T09:35:46.122Z,43.25
2019-01-24T09:38:16.140Z,43.55
2019-01-24T09:40:46.731Z,49.35
2019-01-24T09:43:17.091Z,49.58
2019-01-24T09:45:47.204Z,46.90
2019-01-24T09:48:17.648Z,44.42
2019-01-24T09:50:47.736Z,46.60
2019-01-24T09:53:18.096Z,47.80
2019-01-24T09:55:48.418Z,48.58
2019-01-24T09:58:18.920Z,47.58
2019-01-24T10:00:49.396Z,46.98
2019-01-24T10:03:20.038Z,55.75
2019-01-24T10:05:50.412Z,40.55
2019-01-24T10:08:22.087Z,43.35
2019-01-24T10:10:52.998Z,43.45
2019-01-24T10:13:23.698Z,46.88
2019-01-24T10:15:54.284Z,42.43
2019-01-24T10:18:24.474Z,42.88
2019-01-24T10:20:54.791Z,46.88
2019-01-24T10:23:25.292Z,51.88
2019-01-24T10:25:55.613Z,45.60
2019-01-24T10:28:25.838Z,53.40
2019-01-24T10:30:56.053Z,45.25
2019-01-24T10:33:26.413Z,54.98
2019-01-24T10:35:57.052Z,51.35
2019-01-24T10:38:26.898Z,53.83
2019-01-24T10:40:57.034Z,51.42
2019-01-24T10:43:27.191Z,55.83
2019-01-24T10:45:59.017Z,49.30
2019-01-24T10:48:29.188Z,49.40
2019-01-24T10:51:00.888Z,51.18
2019-01-24T10:53:31.560Z,54.25
2019-01-24T10:56:01.932Z,55.78
2019-01-24T10:58:32.363Z,50.17
2019-01-24T11:01:02.848Z,55.25
2019-01-24T11:03:32.969Z,52.83
2019-01-24T11:06:03.306Z,55.75
2019-01-24T11:08:34.170Z,51.08
2019-01-24T11:11:04.842Z,58.15
2019-01-24T11:13:35.249Z,57.20
2019-01-24T11:16:05.553Z,52.13
2019-01-24T11:18:36.009Z,51.95
2019-01-24T11:21:06.735Z,54.40
2019-01-24T11:23:37.030Z,54.67
2019-01-24T11:26:07.316Z,49.35
2019-01-24T11:28:37.461Z,55.17
2019-01-24T11:31:07.960Z,52.50
2019-01-24T11:33:39.093Z,57.33
2019-01-24T11:36:09.745Z,52.95
2019-01-24T11:38:40.276Z,57.83
2019-01-24T11:41:10.831Z,56.58
2019-01-24T11:43:41.037Z,61.63
2019-01-24T11:46:11.490Z,57.45
2019-01-24T11:48:41.623Z,65.85
2019-01-24T11:51:11.839Z,57.17
2019-01-24T11:53:42.034Z,90.05
2019-01-24T11:56:12.895Z,66.12
2019-01-24T11:58:43.631Z,64.40
2019-01-24T12:01:13.800Z,61.42
2019-01-24T12:03:44.253Z,58.55
2019-01-24T12:06:14.451Z,56.02
2019-01-24T12:08:44.656Z,54.60
2019-01-24T12:11:15.235Z,58.10
2019-01-24T12:13:45.971Z,61.20
2019-01-24T12:16:16.261Z,54.60
2019-01-24T12:18:46.506Z,57.60
2019-01-24T12:21:16.608Z,64.20
2019-01-24T12:23:47.030Z,62.60
2019-01-24T12:26:17.228Z,58.80
2019-01-24T12:28:47.975Z,58.78
2019-01-24T12:31:18.206Z,58.10
2019-01-24T12:33:48.461Z,57.58
2019-01-24T12:36:19.864Z,54.30
2019-01-24T12:38:50.298Z,57.53
2019-01-24T12:41:20.428Z,58.63
2019-01-24T12:43:51.191Z,57.88
2019-01-24T12:46:21.717Z,61.88
2019-01-24T12:48:51.817Z,51.85
2019-01-24T12:51:22.323Z,49.77
2019-01-24T12:53:52.923Z,56.73
2019-01-24T12:56:23.384Z,53.35
2019-01-24T12:58:53.960Z,54.93
2019-01-24T13:01:24.283Z,56.25
2019-01-24T13:03:54.854Z,60.38
2019-01-24T13:06:25.335Z,66.70
2019-01-24T13:08:55.675Z,56.18
2019-01-24T13:11:26.176Z,60.03
2019-01-24T13:13:56.616Z,60.52
2019-01-24T13:16:26.929Z,61.15
2019-01-24T13:18:58.576Z,52.15
2019-01-24T13:21:29.145Z,56.70
2019-01-24T13:23:59.419Z,56.95
2019-01-24T13:26:29.543Z,60.50
2019-01-24T13:28:59.852Z,53.13
2019-01-24T13:31:30.084Z,62.20
2019-01-24T13:34:00.926Z,61.18
2019-01-24T13:36:31.300Z,54.45
2019-01-24T13:39:01.941Z,52.90
2019-01-24T13:41:32.579Z,51.10
2019-01-24T13:44:02.942Z,55.55
2019-01-24T13:46:33.537Z,59.60
2019-01-24T13:49:03.959Z,59.42
2019-01-24T13:51:34.432Z,59.30
2019-01-24T13:54:04.509Z,53.35
2019-01-24T13:56:35.228Z,54.27
2019-01-24T13:59:05.577Z,53.05
2019-01-24T14:01:36.080Z,52.83
2019-01-24T14:04:09.522Z,51.58
2019-01-24T14:06:39.894Z,57.83
2019-01-24T14:09:10.519Z,59.35
2019-01-24T14:11:41.120Z,61.18
2019-01-24T14:14:11.305Z,61.25
2019-01-24T14:16:41.807Z,57.55
2019-01-24T14:19:12.313Z,57.75
2019-01-24T14:21:42.397Z,54.18
2019-01-24T14:24:12.771Z,58.60
2019-01-24T14:26:43.182Z,52.03
2019-01-24T14:29:13.747Z,58.17
2019-01-24T14:31:43.949Z,61.02
2019-01-24T14:34:14.289Z,60.28
2019-01-24T14:36:44.431Z,58.20
2019-01-24T14:39:16.223Z,55.98
2019-01-24T14:41:46.721Z,59.33
2019-01-24T14:44:17.055Z,63.68
2019-01-24T14:46:47.745Z,57.45
2019-01-24T14:49:17.838Z,55.55
2019-01-24T14:51:48.170Z,63.73
2019-01-24T14:54:18.293Z,78.35
2019-01-24T14:56:48.460Z,73.60
2019-01-24T14:59:19.225Z,52.98
2019-01-24T15:01:49.557Z,50.38
2019-01-24T15:04:19.964Z,53.92
2019-01-24T15:06:50.813Z,50.70
2019-01-24T15:09:21.566Z,48.30
2019-01-24T15:11:53.431Z,48.90
2019-01-24T15:14:24.842Z,47.08
2019-01-24T15:16:55.919Z,49.63
2019-01-24T15:19:27.109Z,50.65
2019-01-24T15:21:58.904Z,54.40
2019-01-24T15:24:29.679Z,60.33
2019-01-24T15:27:00.562Z,54.45
2019-01-24T15:29:31.346Z,47.27
2019-01-24T15:32:02.106Z,52.13
2019-01-24T15:34:32.948Z,54.53
2019-01-24T15:37:03.627Z,53.50
2019-01-24T15:39:34.464Z,58.48
2019-01-24T15:42:05.128Z,74.10
2019-01-24T15:44:37.158Z,100.25
2019-01-24T15:47:09.381Z,84.83
2019-01-24T15:49:40.348Z,106.55
2019-01-24T15:52:11.954Z,132.80
2019-01-24T15:54:43.038Z,78.17
2019-01-24T15:57:15.619Z,84.20
2019-01-24T15:59:47.299Z,62.58
2019-01-24T16:02:18.785Z,57.50
2019-01-24T16:04:50.153Z,53.80
2019-01-24T16:07:22.198Z,52.10
2019-01-24T16:09:52.948Z,58.52
2019-01-24T16:12:24.038Z,60.45
2019-01-24T16:14:54.865Z,46.75
2019-01-24T16:17:25.401Z,49.70
2019-01-24T16:19:56.362Z,52.13
2019-01-24T16:22:27.013Z,66.20
2019-01-24T16:24:58.351Z,64.75
2019-01-24T16:27:29.204Z,64.90
2019-01-24T16:30:00.443Z,75.00
2019-01-24T16:32:31.918Z,82.00
2019-01-24T16:35:02.690Z,57.73
2019-01-24T16:37:33.284Z,53.58
2019-01-24T16:40:04.372Z,51.50
2019-01-24T16:42:35.036Z,62.38
2019-01-24T16:45:08.677Z,57.33
2019-01-24T16:47:39.404Z,55.12
2019-01-24T16:50:13.305Z,54.70
2019-01-24T16:52:44.763Z,60.60
2019-01-24T16:55:18.974Z,59.40
2019-01-24T16:57:52.574Z,55.20
2019-01-24T17:00:26.318Z,56.35
2019-01-24T17:02:57.384Z,55.52
2019-01-24T17:05:29.939Z,55.25
2019-01-24T17:08:02.758Z,62.05
2019-01-24T17:10:34.768Z,53.90
2019-01-24T17:13:07.454Z,53.50
2019-01-24T17:15:38.685Z,57.93
2019-01-24T17:18:10.121Z,57.88
2019-01-24T17:20:40.808Z,57.98
2019-01-24T17:23:11.520Z,65.55
2019-01-24T17:25:42.841Z,69.60
2019-01-24T17:28:13.805Z,63.30
2019-01-24T17:30:44.353Z,70.52
2019-01-24T17:33:15.115Z,69.53
2019-01-24T17:35:45.511Z,64.62
2019-01-24T17:38:15.901Z,59.63
2019-01-24T17:40:46.783Z,65.83
2019-01-24T17:43:17.453Z,52.98
2019-01-24T17:45:47.808Z,52.35
2019-01-24T17:48:18.338Z,55.65
2019-01-24T17:50:49.133Z,57.35
2019-01-24T17:53:19.760Z,58.73
2019-01-24T17:55:51.868Z,72.37
2019-01-24T17:58:23.025Z,56.23
2019-01-24T18:00:54.273Z,74.70
2019-01-24T18:03:25.275Z,70.97
2019-01-24T18:05:55.997Z,72.53
2019-01-24T18:08:31.209Z,66.00
2019-01-24T18:10:59.060Z,60.90
2019-01-24T18:13:30.011Z,66.80
2019-01-24T18:16:00.933Z,68.80
2019-01-24T18:18:32.247Z,66.42
2019-01-24T18:21:03.319Z,65.03
2019-01-24T18:23:34.588Z,55.88
2019-01-24T18:26:07.694Z,57.43
2019-01-24T18:28:38.908Z,50.35
2019-01-24T18:31:10.202Z,57.15
2019-01-24T18:33:42.241Z,56.48
2019-01-24T18:36:13.158Z,57.75
2019-01-24T18:38:44.335Z,58.73
2019-01-24T18:41:16.139Z,56.20
2019-01-24T18:43:47.110Z,58.33
2019-01-24T18:46:18.860Z,55.63
2019-01-24T18:48:50.057Z,59.70
2019-01-24T18:51:21.405Z,60.78
2019-01-24T18:53:54.869Z,58.78
2019-01-24T18:56:25.761Z,64.30
2019-01-24T18:58:57.000Z,63.28
2019-01-24T19:01:27.919Z,57.48
2019-01-24T19:03:58.864Z,55.63
2019-01-24T19:06:29.559Z,56.02
2019-01-24T19:09:00.330Z,59.00
2019-01-24T19:11:31.117Z,57.48
2019-01-24T19:14:02.051Z,55.30
2019-01-24T19:16:33.095Z,50.00
2019-01-24T19:19:03.957Z,53.87
2019-01-24T19:21:35.599Z,59.18
2019-01-24T19:24:06.681Z,60.17
2019-01-24T19:26:38.967Z,55.15
2019-01-24T19:29:11.730Z,54.25
2019-01-24T19:31:42.629Z,52.15
2019-01-24T19:34:13.172Z,54.58
2019-01-24T19:36:43.971Z,58.48
2019-01-24T19:39:14.872Z,52.15
2019-01-24T19:41:46.749Z,55.75
2019-01-24T19:44:17.694Z,55.17
2019-01-24T19:46:48.817Z,56.63
2019-01-24T19:49:19.839Z,50.52
2019-01-24T19:51:50.911Z,51.55
2019-01-24T19:54:22.690Z,52.50
2019-01-24T19:56:54.571Z,56.37
2019-01-24T19:59:26.570Z,58.42
2019-01-24T20:01:57.424Z,54.20
2019-01-24T20:04:28.338Z,53.20
2019-01-24T20:07:01.540Z,54.25
2019-01-24T20:09:33.470Z,53.70
2019-01-24T20:12:04.853Z,53.05
2019-01-24T20:14:35.934Z,52.90
2019-01-24T20:17:06.514Z,52.25
2019-01-24T20:19:37.115Z,55.15
2019-01-24T20:22:08.240Z,55.52
2019-01-24T20:24:39.043Z,53.65
2019-01-24T20:27:10.195Z,56.60
2019-01-24T20:29:42.058Z,54.03
2019-01-24T20:32:13.466Z,53.40
2019-01-24T20:34:44.495Z,62.30
2019-01-24T20:37:15.583Z,57.50
2019-01-24T20:39:47.085Z,50.90
2019-01-24T20:42:19.877Z,52.23
2019-01-24T20:44:52.082Z,55.60
2019-01-24T20:47:24.596Z,71.33
2019-01-24T20:49:56.517Z,68.33
2019-01-24T20:52:28.756Z,65.05
2019-01-24T20:55:02.620Z,56.95
2019-01-24T20:57:34.709Z,54.70
2019-01-24T21:00:17.345Z,52.45
2019-01-24T21:02:49.044Z,56.55
2019-01-24T21:05:21.768Z,56.40
2019-01-24T21:07:52.977Z,55.35
2019-01-24T21:10:27.195Z,53.15
2019-01-24T21:13:00.334Z,56.05
2019-01-24T21:15:32.521Z,36.25
2019-01-24T21:18:04.640Z,47.00
2019-01-24T21:20:36.298Z,52.10
2019-01-24T21:23:10.660Z,53.52
2019-01-24T21:25:42.543Z,58.48
2019-01-24T21:28:14.363Z,58.52
2019-01-24T21:30:45.773Z,52.53
2019-01-24T21:33:17.604Z,57.93
2019-01-24T21:35:48.936Z,56.25
2019-01-24T21:38:20.485Z,55.08
2019-01-24T21:40:52.710Z,50.52
2019-01-24T21:43:28.145Z,52.40
2019-01-24T21:46:04.101Z,53.73
2019-01-24T21:48:36.584Z,51.55
2019-01-24T21:51:13.977Z,55.63
2019-01-24T21:53:46.879Z,52.60
2019-01-24T21:56:19.447Z,51.28
2019-01-24T21:58:50.338Z,52.30
2019-01-24T22:01:21.426Z,53.17
2019-01-24T22:03:52.294Z,52.03
2019-01-24T22:06:23.476Z,51.35
2019-01-24T22:08:54.072Z,50.92
2019-01-24T22:11:25.063Z,49.05
2019-01-24T22:13:56.715Z,46.23
2019-01-24T22:16:27.221Z,49.90
2019-01-24T22:18:58.873Z,48.10
2019-01-24T22:21:29.446Z,51.02
2019-01-24T22:24:01.295Z,54.50
2019-01-24T22:26:31.697Z,47.30
2019-01-24T22:29:02.142Z,46.08
2019-01-24T22:31:32.336Z,56.45
2019-01-24T22:34:02.842Z,50.10
2019-01-24T22:36:33.327Z,48.80
2019-01-24T22:39:04.861Z,50.80
2019-01-24T22:41:35.124Z,50.43
2019-01-24T22:44:05.535Z,53.98
2019-01-24T22:46:35.716Z,54.70
2019-01-24T22:49:06.160Z,51.02
2019-01-24T22:51:36.213Z,53.10
2019-01-24T22:54:06.446Z,59.23
2019-01-24T22:56:36.786Z,51.42
2019-01-24T22:59:07.319Z,51.40
2019-01-24T23:01:40.619Z,46.90
2019-01-24T23:04:11.239Z,52.48
2019-01-24T23:06:41.974Z,52.78
2019-01-24T23:09:12.624Z,50.43
2019-01-24T23:11:43.102Z,57.03
2019-01-24T23:14:13.564Z,51.60
2019-01-24T23:16:43.766Z,53.83
2019-01-24T23:19:14.287Z,50.63
2019-01-24T23:21:45.062Z,52.08
2019-01-24T23:24:15.534Z,48.60
2019-01-24T23:26:46.109Z,47.27
2019-01-24T23:29:16.533Z,53.13
2019-01-24T23:31:47.144Z,44.93
2019-01-24T23:34:17.592Z,47.35
2019-01-24T23:36:47.768Z,50.63
2019-01-24T23:39:18.205Z,46.75
2019-01-24T23:41:48.506Z,45.15
2019-01-24T23:44:20.060Z,54.20
2019-01-24T23:46:50.709Z,48.08
2019-01-24T23:49:21.346Z,46.33
2019-01-24T23:51:51.738Z,50.58
2019-01-24T23:54:22.158Z,47.65
2019-01-24T23:56:52.323Z,50.28
2019-01-24T23:59:22.637Z,50.73
